Yuma, AZ

12:19 PM MST on April 24, 2017 (GMT -0700)
El Pueblocito | | Change Station

Elev 121 ft 32.70 °N, 114.64 °W | Updated 29 seconds ago

Partly Cloudy
Partly Cloudy
87.6 °F
Feels Like 84 °F
N
7.8
Wind Variable Wind from South

Today
High -- | Low -- °F
--% Chance of Precip.
Yesterday
High -- | Low -- °F
Precip. -- in
Pressure 29.73 in
Visibility 7.0 miles
Clouds Scattered Clouds 20000 ft
Mostly Cloudy 25000 ft
Heat Index 84 °F
Dew Point 36 °F
Humidity 16%
Rainfall 0.00 in
Snow Depth Not available.
5:58 AM 7:15 PM
Waning Crescent, 4% visible
METAR KNYL 241857Z 23009KT 7SM SCT200 BKN250 31/M01 A2974 RMK AO2 SLP067 T03061011 $
Pressure 29.73 in
Visibility 7.0 miles
Clouds Scattered Clouds 20000 ft
Mostly Cloudy 25000 ft
Heat Index 84 °F
Dew Point 36 °F
Humidity 16%
Rainfall 0.00 in
Snow Depth Not available.
5:58 AM 7:15 PM
Waning Crescent, 4% visible
METAR KNYL 241857Z 23009KT 7SM SCT200 BKN250 31/M01 A2974 RMK AO2 SLP067 T03061011 $

Get Severe Weather Alerts

Thanks for signing up!

Be on the lookout for a verification email in your inbox.

You'll start receiving the daily forecast at 8 AM.

×

10-Day Weather Forecast

Almanac

Astronomy

Apr. 24, 2017 Rise Set
Actual Time
Civil Twilight
Nautical Twilight
Astronomical Twilight
Moon
Length of Visible Light
Length of Day
Tomorrow will be .
, % of the Moon is Illuminated

Today's Extremes

State Highs State Lows

Community

WunderPhotos

WunderBlog® & News

Nearby

Air Quality

  Air Quality AQ Index Pollutant
Not available.

Snow Depth

Station Depth Elevation

Earthquake Activity

City Distance Mag. Time & Date
Minimum magnitude displayed is 2.5.

Coastal Water Temperatures

Place Temperature

Stations

Nearby Weather Stations

Station Location Temp. Windchill Dew Point Humidity Wind Precip. Elev Updated Type
                   

Watches & Warnings

There are currently no watches in effect.